sensor_id;sensor_type;location;lat;lon;timestamp;pressure;altitude;pressure_sealevel;temperature;humidity
75701;BME280;64321;48.796;44.740;2024-03-22T00:00:52;101922.91;;;1.86;100.00
75701;BME280;64321;48.796;44.740;2024-03-22T00:05:54;101913.63;;;1.76;100.00
75701;BME280;64321;48.796;44.740;2024-03-22T00:10:55;101915.19;;;1.46;100.00
75701;BME280;64321;48.796;44.740;2024-03-22T00:15:57;101910.19;;;1.75;100.00
75701;BME280;64321;48.796;44.740;2024-03-22T00:20:58;101916.56;;;1.62;100.00
75701;BME280;64321;48.796;44.740;2024-03-22T00:26:00;101908.66;;;1.65;100.00
75701;BME280;64321;48.796;44.740;2024-03-22T00:31:01;101908.03;;;1.57;100.00
75701;BME280;64321;48.796;44.740;2024-03-22T00:36:03;101899.31;;;1.58;100.00
75701;BME280;64321;48.796;44.740;2024-03-22T00:41:04;101893.34;;;1.53;100.00
75701;BME280;64321;48.796;44.740;2024-03-22T00:46:06;101891.59;;;1.53;100.00
75701;BME280;64321;48.796;44.740;2024-03-22T00:51:08;101888.34;;;1.44;100.00
75701;BME280;64321;48.796;44.740;2024-03-22T00:56:10;101896.94;;;1.47;100.00
75701;BME280;64321;48.796;44.740;2024-03-22T01:01:11;101889.41;;;1.36;100.00
75701;BME280;64321;48.796;44.740;2024-03-22T01:06:12;101898.75;;;1.44;100.00
75701;BME280;64321;48.796;44.740;2024-03-22T01:11:14;101895.06;;;1.54;100.00
75701;BME280;64321;48.796;44.740;2024-03-22T01:16:15;101884.66;;;1.54;100.00
75701;BME280;64321;48.796;44.740;2024-03-22T01:21:17;101887.63;;;1.38;100.00
75701;BME280;64321;48.796;44.740;2024-03-22T01:26:19;101891.56;;;1.55;100.00
75701;BME280;64321;48.796;44.740;2024-03-22T01:31:20;101888.41;;;1.42;100.00
75701;BME280;64321;48.796;44.740;2024-03-22T01:36:22;101889.41;;;1.36;100.00
75701;BME280;64321;48.796;44.740;2024-03-22T01:41:23;101878.75;;;1.46;100.00
75701;BME280;64321;48.796;44.740;2024-03-22T01:46:25;101887.72;;;1.34;100.00
75701;BME280;64321;48.796;44.740;2024-03-22T01:51:26;101891.06;;;1.41;100.00
75701;BME280;64321;48.796;44.740;2024-03-22T01:56:28;101879.56;;;1.49;100.00
75701;BME280;64321;48.796;44.740;2024-03-22T02:01:30;101882.06;;;1.54;100.00
75701;BME280;64321;48.796;44.740;2024-03-22T02:06:32;101886.34;;;1.56;100.00
75701;BME280;64321;48.796;44.740;2024-03-22T02:11:33;101888.38;;;1.79;100.00
75701;BME280;64321;48.796;44.740;2024-03-22T02:16:35;101891.25;;;1.31;100.00
75701;BME280;64321;48.796;44.740;2024-03-22T02:21:36;101903.28;;;1.37;100.00
75701;BME280;64321;48.796;44.740;2024-03-22T02:26:37;101884.13;;;1.39;100.00
75701;BME280;64321;48.796;44.740;2024-03-22T02:31:39;101878.00;;;1.42;100.00
75701;BME280;64321;48.796;44.740;2024-03-22T02:36:40;101877.34;;;1.68;100.00
75701;BME280;64321;48.796;44.740;2024-03-22T02:41:41;101879.34;;;1.21;100.00
75701;BME280;64321;48.796;44.740;2024-03-22T02:46:43;101876.56;;;1.29;100.00
75701;BME280;64321;48.796;44.740;2024-03-22T02:51:44;101891.25;;;1.31;100.00
75701;BME280;64321;48.796;44.740;2024-03-22T02:56:46;101886.41;;;1.16;100.00
75701;BME280;64321;48.796;44.740;2024-03-22T03:01:47;101893.03;;;1.29;100.00
75701;BME280;64321;48.796;44.740;2024-03-22T03:06:49;101898.22;;;1.29;100.00
75701;BME280;64321;48.796;44.740;2024-03-22T03:11:50;101892.00;;;1.36;100.00
75701;BME280;64321;48.796;44.740;2024-03-22T03:16:52;101883.50;;;1.28;100.00
75701;BME280;64321;48.796;44.740;2024-03-22T03:21:53;101894.75;;;1.30;100.00
75701;BME280;64321;48.796;44.740;2024-03-22T03:26:54;101891.63;;;1.15;100.00
75701;BME280;64321;48.796;44.740;2024-03-22T03:31:56;101891.72;;;1.10;100.00
75701;BME280;64321;48.796;44.740;2024-03-22T03:36:57;101897.41;;;1.27;100.00
75701;BME280;64321;48.796;44.740;2024-03-22T03:42:02;101889.53;;;1.30;100.00
75701;BME280;64321;48.796;44.740;2024-03-22T03:47:03;101884.81;;;1.09;100.00
75701;BME280;64321;48.796;44.740;2024-03-22T03:52:05;101893.72;;;0.99;100.00
75701;BME280;64321;48.796;44.740;2024-03-22T03:57:06;101895.59;;;0.91;100.00
75701;BME280;64321;48.796;44.740;2024-03-22T04:02:08;101887.06;;;0.86;100.00
75701;BME280;64321;48.796;44.740;2024-03-22T04:07:09;101907.16;;;1.19;100.00
75701;BME280;64321;48.796;44.740;2024-03-22T04:12:11;101912.13;;;1.28;100.00
75701;BME280;64321;48.796;44.740;2024-03-22T04:17:12;101917.22;;;1.34;100.00
75701;BME280;64321;48.796;44.740;2024-03-22T04:22:13;101924.19;;;1.32;100.00
75701;BME280;64321;48.796;44.740;2024-03-22T04:27:15;101916.00;;;1.49;100.00
75701;BME280;64321;48.796;44.740;2024-03-22T04:32:16;101906.25;;;1.59;100.00
75701;BME280;64321;48.796;44.740;2024-03-22T04:37:18;101908.91;;;1.56;100.00
75701;BME280;64321;48.796;44.740;2024-03-22T04:42:19;101911.69;;;1.84;100.00
75701;BME280;64321;48.796;44.740;2024-03-22T04:47:20;101923.28;;;1.72;100.00
75701;BME280;64321;48.796;44.740;2024-03-22T04:52:23;101919.31;;;1.91;100.00
75701;BME280;64321;48.796;44.740;2024-03-22T04:57:24;101920.84;;;1.64;100.00
75701;BME280;64321;48.796;44.740;2024-03-22T05:02:25;101918.06;;;1.72;100.00
75701;BME280;64321;48.796;44.740;2024-03-22T05:07:26;101920.41;;;1.81;100.00
75701;BME280;64321;48.796;44.740;2024-03-22T05:12:28;101921.25;;;1.83;100.00
75701;BME280;64321;48.796;44.740;2024-03-22T05:17:30;101916.56;;;1.62;100.00
75701;BME280;64321;48.796;44.740;2024-03-22T05:22:33;101922.88;;;1.87;100.00
75701;BME280;64321;48.796;44.740;2024-03-22T05:27:34;101927.47;;;1.42;100.00
75701;BME280;64321;48.796;44.740;2024-03-22T05:32:36;101916.22;;;1.77;100.00
75701;BME280;64321;48.796;44.740;2024-03-22T05:37:37;101915.44;;;2.07;100.00
75701;BME280;64321;48.796;44.740;2024-03-22T05:42:39;101908.72;;;1.97;100.00
75701;BME280;64321;48.796;44.740;2024-03-22T05:47:40;101915.88;;;2.23;100.00
75701;BME280;64321;48.796;44.740;2024-03-22T05:52:41;101915.72;;;2.29;100.00
75701;BME280;64321;48.796;44.740;2024-03-22T05:57:43;101905.66;;;2.48;100.00
75701;BME280;64321;48.796;44.740;2024-03-22T06:02:44;101901.19;;;2.21;100.00
75701;BME280;64321;48.796;44.740;2024-03-22T06:07:46;101894.69;;;2.35;100.00
75701;BME280;64321;48.796;44.740;2024-03-22T06:12:47;101882.75;;;2.59;100.00
75701;BME280;64321;48.796;44.740;2024-03-22T06:17:48;101873.94;;;2.63;100.00
75701;BME280;64321;48.796;44.740;2024-03-22T06:22:51;101874.28;;;3.10;100.00
75701;BME280;64321;48.796;44.740;2024-03-22T06:27:52;101876.97;;;3.07;100.00
75701;BME280;64321;48.796;44.740;2024-03-22T06:32:54;101878.28;;;3.22;100.00
75701;BME280;64321;48.796;44.740;2024-03-22T06:37:58;101862.78;;;3.43;100.00
75701;BME280;64321;48.796;44.740;2024-03-22T06:43:00;101862.50;;;3.25;100.00
75701;BME280;64321;48.796;44.740;2024-03-22T06:48:01;101862.78;;;3.43;100.00
75701;BME280;64321;48.796;44.740;2024-03-22T06:53:03;101871.72;;;3.36;100.00
75701;BME280;64321;48.796;44.740;2024-03-22T06:58:05;101867.69;;;3.54;100.00
75701;BME280;64321;48.796;44.740;2024-03-22T07:03:06;101876.28;;;3.58;100.00
75701;BME280;64321;48.796;44.740;2024-03-22T07:08:08;101868.25;;;3.08;100.00
75701;BME280;64321;48.796;44.740;2024-03-22T07:13:09;101859.25;;;3.44;100.00
75701;BME280;64321;48.796;44.740;2024-03-22T07:18:11;101872.78;;;3.83;100.00
75701;BME280;64321;48.796;44.740;2024-03-22T07:23:12;101871.50;;;3.95;100.00
75701;BME280;64321;48.796;44.740;2024-03-22T07:28:14;101885.06;;;4.06;100.00
75701;BME280;64321;48.796;44.740;2024-03-22T07:33:16;101877.34;;;3.77;100.00
75701;BME280;64321;48.796;44.740;2024-03-22T07:38:19;101876.28;;;3.58;100.00
75701;BME280;64321;48.796;44.740;2024-03-22T07:43:20;101860.53;;;3.59;100.00
75701;BME280;64321;48.796;44.740;2024-03-22T07:48:21;101865.72;;;4.12;100.00
75701;BME280;64321;48.796;44.740;2024-03-22T07:53:23;101866.34;;;4.18;100.00
75701;BME280;64321;48.796;44.740;2024-03-22T07:58:24;101856.09;;;4.12;100.00
75701;BME280;64321;48.796;44.740;2024-03-22T08:03:25;101867.47;;;4.11;100.00
75701;BME280;64321;48.796;44.740;2024-03-22T08:08:27;101865.34;;;4.23;100.00
75701;BME280;64321;48.796;44.740;2024-03-22T08:13:28;101861.19;;;3.92;100.00
75701;BME280;64321;48.796;44.740;2024-03-22T08:18:29;101867.69;;;3.79;100.00
75701;BME280;64321;48.796;44.740;2024-03-22T08:23:31;101861.03;;;3.95;100.00
75701;BME280;64321;48.796;44.740;2024-03-22T08:28:32;101864.22;;;4.30;100.00
75701;BME280;64321;48.796;44.740;2024-03-22T08:33:33;101864.00;;;4.59;100.00
75701;BME280;64321;48.796;44.740;2024-03-22T08:38:35;101859.78;;;4.78;100.00
75701;BME280;64321;48.796;44.740;2024-03-22T08:43:37;101861.66;;;4.51;100.00
75701;BME280;64321;48.796;44.740;2024-03-22T08:48:38;101843.31;;;4.76;100.00
75701;BME280;64321;48.796;44.740;2024-03-22T08:53:39;101848.81;;;5.14;100.00
75701;BME280;64321;48.796;44.740;2024-03-22T08:58:41;101836.59;;;5.36;100.00
75701;BME280;64321;48.796;44.740;2024-03-22T09:03:42;101813.28;;;5.50;100.00
75701;BME280;64321;48.796;44.740;2024-03-22T09:08:47;101810.00;;;5.45;100.00
75701;BME280;64321;48.796;44.740;2024-03-22T09:13:51;101809.38;;;6.21;100.00
75701;BME280;64321;48.796;44.740;2024-03-22T09:18:53;101810.41;;;6.75;100.00
75701;BME280;64321;48.796;44.740;2024-03-22T09:23:54;101812.41;;;6.12;100.00
75701;BME280;64321;48.796;44.740;2024-03-22T09:28:55;101812.59;;;6.47;100.00
75701;BME280;64321;48.796;44.740;2024-03-22T09:33:57;101805.94;;;6.40;100.00
75701;BME280;64321;48.796;44.740;2024-03-22T09:38:58;101799.19;;;6.53;100.00
75701;BME280;64321;48.796;44.740;2024-03-22T09:44:02;101805.72;;;6.05;100.00
75701;BME280;64321;48.796;44.740;2024-03-22T09:49:06;101824.34;;;6.19;100.00
75701;BME280;64321;48.796;44.740;2024-03-22T09:54:09;101814.75;;;6.18;100.00
75701;BME280;64321;48.796;44.740;2024-03-22T09:59:11;101802.66;;;6.35;100.00
75701;BME280;64321;48.796;44.740;2024-03-22T10:04:13;101811.03;;;6.43;100.00
75701;BME280;64321;48.796;44.740;2024-03-22T10:09:15;101808.34;;;6.63;100.00
75701;BME280;64321;48.796;44.740;2024-03-22T10:14:19;101802.53;;;6.75;100.00
75701;BME280;64321;48.796;44.740;2024-03-22T10:19:21;101788.75;;;6.89;95.41
75701;BME280;64321;48.796;44.740;2024-03-22T10:24:23;101789.16;;;6.63;98.97
75701;BME280;64321;48.796;44.740;2024-03-22T10:29:24;101785.34;;;6.68;99.74
75701;BME280;64321;48.796;44.740;2024-03-22T10:34:27;101786.13;;;7.25;94.67
75701;BME280;64321;48.796;44.740;2024-03-22T10:39:30;101778.25;;;7.42;86.73
75701;BME280;64321;48.796;44.740;2024-03-22T10:44:32;101784.66;;;7.71;83.72
75701;BME280;64321;48.796;44.740;2024-03-22T10:49:34;101769.59;;;7.40;88.57
75701;BME280;64321;48.796;44.740;2024-03-22T10:54:43;101774.22;;;7.35;93.78
75701;BME280;64321;48.796;44.740;2024-03-22T10:59:46;101770.69;;;7.53;90.30
75701;BME280;64321;48.796;44.740;2024-03-22T11:04:56;101767.09;;;7.72;84.53
75701;BME280;64321;48.796;44.740;2024-03-22T11:10:02;101748.78;;;7.87;80.78
75701;BME280;64321;48.796;44.740;2024-03-22T11:15:05;101748.72;;;7.72;82.54
75701;BME280;64321;48.796;44.740;2024-03-22T11:20:07;101750.28;;;7.58;85.54
75701;BME280;64321;48.796;44.740;2024-03-22T11:25:09;101739.53;;;7.46;84.52
75701;BME280;64321;48.796;44.740;2024-03-22T11:30:10;101730.13;;;7.92;84.41
75701;BME280;64321;48.796;44.740;2024-03-22T11:35:13;101718.53;;;7.79;85.95
75701;BME280;64321;48.796;44.740;2024-03-22T11:40:14;101735.56;;;7.54;87.13
75701;BME280;64321;48.796;44.740;2024-03-22T11:45:17;101728.03;;;7.31;89.43
75701;BME280;64321;48.796;44.740;2024-03-22T11:50:19;101727.09;;;7.49;91.25
75701;BME280;64321;48.796;44.740;2024-03-22T11:55:21;101713.63;;;7.04;96.72
75701;BME280;64321;48.796;44.740;2024-03-22T12:00:22;101714.31;;;6.54;100.00
75701;BME280;64321;48.796;44.740;2024-03-22T12:05:23;101714.59;;;6.48;100.00
75701;BME280;64321;48.796;44.740;2024-03-22T12:10:26;101703.53;;;6.60;100.00
75701;BME280;64321;48.796;44.740;2024-03-22T12:15:27;101692.19;;;6.41;100.00
75701;BME280;64321;48.796;44.740;2024-03-22T12:20:28;101688.91;;;7.08;100.00
75701;BME280;64321;48.796;44.740;2024-03-22T12:25:30;101680.97;;;7.09;100.00
75701;BME280;64321;48.796;44.740;2024-03-22T12:30:32;101665.06;;;7.12;98.67
75701;BME280;64321;48.796;44.740;2024-03-22T12:35:39;101661.25;;;6.47;100.00
75701;BME280;64321;48.796;44.740;2024-03-22T12:40:41;101651.28;;;6.73;100.00
75701;BME280;64321;48.796;44.740;2024-03-22T12:45:42;101646.41;;;7.51;96.91
75701;BME280;64321;48.796;44.740;2024-03-22T12:50:43;101656.19;;;6.97;96.02
75701;BME280;64321;48.796;44.740;2024-03-22T12:55:45;101665.56;;;7.02;100.00
75701;BME280;64321;48.796;44.740;2024-03-22T13:00:46;101658.84;;;7.81;90.57
75701;BME280;64321;48.796;44.740;2024-03-22T13:05:48;101646.50;;;7.65;86.62
75701;BME280;64321;48.796;44.740;2024-03-22T13:10:49;101648.59;;;7.09;95.37
75701;BME280;64321;48.796;44.740;2024-03-22T13:15:50;101645.03;;;7.27;94.31
75701;BME280;64321;48.796;44.740;2024-03-22T13:20:52;101649.03;;;7.00;97.46
75701;BME280;64321;48.796;44.740;2024-03-22T13:25:54;101635.81;;;6.67;100.00
75701;BME280;64321;48.796;44.740;2024-03-22T13:31:04;101634.47;;;6.41;100.00
75701;BME280;64321;48.796;44.740;2024-03-22T13:36:07;101630.94;;;6.42;100.00
75701;BME280;64321;48.796;44.740;2024-03-22T13:41:08;101631.88;;;6.58;100.00
75701;BME280;64321;48.796;44.740;2024-03-22T13:46:10;101622.28;;;6.40;100.00
75701;BME280;64321;48.796;44.740;2024-03-22T13:51:15;101623.47;;;6.86;100.00
75701;BME280;64321;48.796;44.740;2024-03-22T13:56:17;101620.47;;;6.76;99.38
75701;BME280;64321;48.796;44.740;2024-03-22T14:01:19;101620.16;;;6.65;100.00
75701;BME280;64321;48.796;44.740;2024-03-22T14:06:20;101615.47;;;7.39;94.91
75701;BME280;64321;48.796;44.740;2024-03-22T14:11:21;101628.28;;;7.78;86.12
75701;BME280;64321;48.796;44.740;2024-03-22T14:16:23;101628.44;;;7.75;81.40
75701;BME280;64321;48.796;44.740;2024-03-22T14:21:24;101640.31;;;7.66;83.92
75701;BME280;64321;48.796;44.740;2024-03-22T14:26:25;101620.28;;;7.48;85.71
75701;BME280;64321;48.796;44.740;2024-03-22T14:31:27;101634.06;;;7.69;83.15
75701;BME280;64321;48.796;44.740;2024-03-22T14:36:28;101630.53;;;7.86;81.06
75701;BME280;64321;48.796;44.740;2024-03-22T14:41:29;101627.53;;;7.43;84.29
75701;BME280;64321;48.796;44.740;2024-03-22T14:46:30;101627.88;;;7.03;87.86
75701;BME280;64321;48.796;44.740;2024-03-22T14:51:32;101629.63;;;6.50;95.69
75701;BME280;64321;48.796;44.740;2024-03-22T14:56:33;101642.31;;;6.23;100.00
75701;BME280;64321;48.796;44.740;2024-03-22T15:01:34;101636.75;;;5.92;100.00
75701;BME280;64321;48.796;44.740;2024-03-22T15:06:36;101631.81;;;6.05;100.00
75701;BME280;64321;48.796;44.740;2024-03-22T15:11:37;101627.78;;;5.77;100.00
75701;BME280;64321;48.796;44.740;2024-03-22T15:16:42;101621.91;;;5.53;100.00
75701;BME280;64321;48.796;44.740;2024-03-22T15:21:43;101621.03;;;5.34;100.00
75701;BME280;64321;48.796;44.740;2024-03-22T15:26:45;101639.72;;;5.05;100.00
75701;BME280;64321;48.796;44.740;2024-03-22T15:31:46;101633.91;;;4.78;100.00
75701;BME280;64321;48.796;44.740;2024-03-22T15:36:47;101639.72;;;4.84;100.00
75701;BME280;64321;48.796;44.740;2024-03-22T15:41:52;101649.28;;;4.85;100.00
75701;BME280;64321;48.796;44.740;2024-03-22T15:46:53;101648.25;;;4.68;100.00
75701;BME280;64321;48.796;44.740;2024-03-22T15:51:56;101661.09;;;4.52;100.00
75701;BME280;64321;48.796;44.740;2024-03-22T15:56:58;101665.59;;;4.48;100.00
75701;BME280;64321;48.796;44.740;2024-03-22T16:01:59;101666.09;;;4.58;100.00
75701;BME280;64321;48.796;44.740;2024-03-22T16:07:00;101664.97;;;4.43;100.00
75701;BME280;64321;48.796;44.740;2024-03-22T16:12:05;101663.72;;;4.52;100.00
75701;BME280;64321;48.796;44.740;2024-03-22T16:17:07;101679.34;;;4.32;100.00
75701;BME280;64321;48.796;44.740;2024-03-22T16:22:08;101681.94;;;4.32;100.00
75701;BME280;64321;48.796;44.740;2024-03-22T16:27:09;101672.88;;;4.18;100.00
75701;BME280;64321;48.796;44.740;2024-03-22T16:32:11;101690.44;;;4.15;100.00
75701;BME280;64321;48.796;44.740;2024-03-22T16:37:13;101688.47;;;4.22;100.00
75701;BME280;64321;48.796;44.740;2024-03-22T16:42:15;101698.34;;;4.13;100.00
75701;BME280;64321;48.796;44.740;2024-03-22T16:47:16;101696.19;;;4.25;100.00
75701;BME280;64321;48.796;44.740;2024-03-22T16:52:17;101697.03;;;4.25;100.00
75701;BME280;64321;48.796;44.740;2024-03-22T16:57:19;101689.25;;;4.24;100.00
75701;BME280;64321;48.796;44.740;2024-03-22T17:02:20;101683.91;;;4.27;100.00
75701;BME280;64321;48.796;44.740;2024-03-22T17:07:22;101689.16;;;4.27;100.00
75701;BME280;64321;48.796;44.740;2024-03-22T17:12:23;101680.13;;;4.34;100.00
75701;BME280;64321;48.796;44.740;2024-03-22T17:17:25;101679.69;;;4.46;100.00
75701;BME280;64321;48.796;44.740;2024-03-22T17:22:26;101677.59;;;4.54;100.00
75701;BME280;64321;48.796;44.740;2024-03-22T17:27:28;101670.44;;;4.59;100.00
75701;BME280;64321;48.796;44.740;2024-03-22T17:32:29;101672.53;;;4.71;100.00
75701;BME280;64321;48.796;44.740;2024-03-22T17:37:32;101659.00;;;4.40;100.00
75701;BME280;64321;48.796;44.740;2024-03-22T17:42:33;101657.88;;;4.24;100.00
75701;BME280;64321;48.796;44.740;2024-03-22T17:47:35;101652.44;;;4.30;100.00
75701;BME280;64321;48.796;44.740;2024-03-22T17:52:36;101646.16;;;4.34;100.00
75701;BME280;64321;48.796;44.740;2024-03-22T17:57:37;101641.81;;;4.33;100.00
75701;BME280;64321;48.796;44.740;2024-03-22T18:02:39;101657.06;;;4.45;100.00
75701;BME280;64321;48.796;44.740;2024-03-22T18:07:40;101651.56;;;4.51;100.00
75701;BME280;64321;48.796;44.740;2024-03-22T18:12:41;101652.41;;;4.51;100.00
75701;BME280;64321;48.796;44.740;2024-03-22T18:17:43;101645.59;;;4.69;100.00
75701;BME280;64321;48.796;44.740;2024-03-22T18:22:44;101645.91;;;4.83;100.00
75701;BME280;64321;48.796;44.740;2024-03-22T18:27:46;101639.59;;;4.87;100.00
75701;BME280;64321;48.796;44.740;2024-03-22T18:32:47;101639.59;;;4.87;100.00
75701;BME280;64321;48.796;44.740;2024-03-22T18:37:48;101640.97;;;4.76;100.00
75701;BME280;64321;48.796;44.740;2024-03-22T18:42:50;101634.94;;;4.52;100.00
75701;BME280;64321;48.796;44.740;2024-03-22T18:47:53;101632.72;;;4.65;100.00
75701;BME280;64321;48.796;44.740;2024-03-22T18:52:54;101643.06;;;4.46;100.00
75701;BME280;64321;48.796;44.740;2024-03-22T18:57:56;101636.13;;;4.45;100.00
75701;BME280;64321;48.796;44.740;2024-03-22T19:02:57;101623.22;;;4.18;100.00
75701;BME280;64321;48.796;44.740;2024-03-22T19:07:59;101619.81;;;4.16;100.00
75701;BME280;64321;48.796;44.740;2024-03-22T19:13:00;101628.09;;;4.28;100.00
75701;BME280;64321;48.796;44.740;2024-03-22T19:18:03;101630.50;;;4.54;100.00
75701;BME280;64321;48.796;44.740;2024-03-22T19:23:06;101621.56;;;4.60;100.00
75701;BME280;64321;48.796;44.740;2024-03-22T19:28:09;101621.63;;;4.58;100.00
75701;BME280;64321;48.796;44.740;2024-03-22T19:33:11;101625.91;;;4.39;100.00
75701;BME280;64321;48.796;44.740;2024-03-22T19:38:12;101617.16;;;4.40;100.00
75701;BME280;64321;48.796;44.740;2024-03-22T19:43:13;101610.78;;;4.25;100.00
75701;BME280;64321;48.796;44.740;2024-03-22T19:48:15;101611.31;;;4.11;100.00
75701;BME280;64321;48.796;44.740;2024-03-22T19:53:16;101599.41;;;3.81;100.00
75701;BME280;64321;48.796;44.740;2024-03-22T19:58:19;101600.56;;;3.74;100.00
75701;BME280;64321;48.796;44.740;2024-03-22T20:03:23;101600.41;;;3.77;100.00
75701;BME280;64321;48.796;44.740;2024-03-22T20:08:25;101615.44;;;3.72;100.00
75701;BME280;64321;48.796;44.740;2024-03-22T20:13:27;101602.53;;;3.44;100.00
75701;BME280;64321;48.796;44.740;2024-03-22T20:18:28;101615.72;;;3.64;100.00
75701;BME280;64321;48.796;44.740;2024-03-22T20:23:30;101604.41;;;3.64;100.00
75701;BME280;64321;48.796;44.740;2024-03-22T20:28:31;101612.22;;;3.40;100.00
75701;BME280;64321;48.796;44.740;2024-03-22T20:33:33;101613.22;;;3.38;100.00
